Time;durP1;ratioP1;P1;durP2;ratioP2;P2;SDS_P1;SDS_P2;PMS_P1;PMS_P2;Temp;Humidity;BMP_temperature;BMP_pressure;BME280_temperature;BME280_humidity;BME280_pressure;Samples;Min_cycle;Max_cycle;Signal;HPM_P1;HPM_P2
2024/01/18 00:00:14;;;;;;;24.47;17.77;;;-2.40;99.90;;;;;;5075704;28;20315;-82
2024/01/18 00:02:43;;;;;;;27.47;18.57;;;-2.40;99.90;;;;;;5075957;28;20309;-82
2024/01/18 00:05:11;;;;;;;29.40;18.73;;;-2.50;99.90;;;;;;5078038;28;20971;-83
2024/01/18 00:07:37;;;;;;;25.57;17.80;;;-2.50;99.90;;;;;;5084006;28;21006;-83
2024/01/18 00:10:05;;;;;;;26.20;18.33;;;-2.50;99.90;;;;;;5074699;27;20226;-82
2024/01/18 00:12:35;;;;;;;25.47;17.40;;;-2.50;99.90;;;;;;5086915;28;20228;-83
2024/01/18 00:15:02;;;;;;;24.67;16.70;;;-2.50;99.90;;;;;;5107212;27;20225;-83
2024/01/18 00:17:29;;;;;;;26.43;18.00;;;-2.50;99.90;;;;;;5074656;28;20214;-84
2024/01/18 00:19:57;;;;;;;25.70;17.70;;;-2.50;99.90;;;;;;5081307;27;20229;-82
2024/01/18 00:22:24;;;;;;;27.57;18.40;;;-2.50;99.90;;;;;;5071960;28;20706;-83
2024/01/18 00:24:51;;;;;;;23.90;16.80;;;-2.50;99.90;;;;;;5082709;27;20230;-83
2024/01/18 00:27:18;;;;;;;24.57;17.23;;;-2.60;99.90;;;;;;5083795;27;20305;-83
2024/01/18 00:29:45;;;;;;;22.47;17.03;;;-2.60;99.90;;;;;;5073986;28;20781;-83
2024/01/18 00:32:12;;;;;;;23.90;17.10;;;-2.60;99.90;;;;;;5085361;28;20326;-83
2024/01/18 00:34:38;;;;;;;22.57;16.87;;;-2.60;99.90;;;;;;5081324;28;20286;-83
2024/01/18 00:37:07;;;;;;;25.63;18.10;;;-2.60;99.90;;;;;;5075777;28;20286;-83
2024/01/18 00:39:33;;;;;;;27.57;18.73;;;-2.60;99.90;;;;;;5073672;28;20226;-82
2024/01/18 00:42:00;;;;;;;27.17;18.40;;;-2.70;99.90;;;;;;5069050;28;20980;-83
2024/01/18 00:44:27;;;;;;;27.63;19.10;;;-2.70;99.90;;;;;;5087032;27;20593;-83
2024/01/18 00:46:54;;;;;;;28.07;18.80;;;-2.70;99.90;;;;;;5085858;28;20240;-83
2024/01/18 00:49:20;;;;;;;27.30;18.67;;;-2.70;99.90;;;;;;5070719;27;20280;-83
2024/01/18 00:51:47;;;;;;;26.57;19.87;;;-2.70;99.90;;;;;;5075895;27;20279;-84
2024/01/18 00:54:15;;;;;;;29.97;19.83;;;-2.70;99.90;;;;;;5089430;28;20241;-83
2024/01/18 00:56:42;;;;;;;28.23;19.03;;;-2.70;99.90;;;;;;5089525;28;20239;-83
2024/01/18 00:59:09;;;;;;;25.63;18.17;;;-2.70;99.90;;;;;;5082470;28;20223;-84
2024/01/18 01:01:35;;;;;;;28.17;19.47;;;-2.70;99.90;;;;;;5073558;27;20216;-84
2024/01/18 01:04:02;;;;;;;32.43;20.10;;;-2.70;99.90;;;;;;5078506;28;20226;-83
2024/01/18 01:06:30;;;;;;;49.20;20.87;;;-2.70;99.90;;;;;;5073421;28;20249;-83
2024/01/18 01:08:56;;;;;;;27.40;20.63;;;-2.70;99.90;;;;;;5094273;28;20218;-83
2024/01/18 01:11:25;;;;;;;27.80;20.63;;;-2.60;99.90;;;;;;5073250;27;20730;-83
2024/01/18 01:13:52;;;;;;;30.07;20.53;;;-2.60;99.90;;;;;;5073278;28;20229;-83
2024/01/18 01:16:20;;;;;;;33.20;21.10;;;-2.60;99.90;;;;;;5084088;27;20226;-83
2024/01/18 01:18:47;;;;;;;28.00;20.23;;;-2.60;99.90;;;;;;5105301;27;20887;-83
2024/01/18 01:21:14;;;;;;;28.27;20.10;;;-2.60;99.90;;;;;;5109193;27;20221;-84
2024/01/18 01:23:44;;;;;;;32.87;21.00;;;-2.60;99.90;;;;;;5077549;28;21534;-83
2024/01/18 01:26:11;;;;;;;29.17;20.63;;;-2.60;99.90;;;;;;5068536;28;20221;-83
2024/01/18 01:28:39;;;;;;;27.83;20.70;;;-2.70;99.90;;;;;;5091199;28;21002;-83
2024/01/18 01:31:06;;;;;;;30.67;21.27;;;-2.60;99.90;;;;;;5074361;28;20225;-83
2024/01/18 01:33:33;;;;;;;28.50;21.03;;;-2.60;99.90;;;;;;5075329;28;20243;-83
2024/01/18 01:36:01;;;;;;;28.13;20.50;;;-2.60;99.90;;;;;;5072421;28;20228;-84
2024/01/18 01:38:28;;;;;;;32.30;21.07;;;-2.60;99.90;;;;;;5073779;28;20226;-84
2024/01/18 01:40:56;;;;;;;32.00;21.40;;;-2.60;99.90;;;;;;5077429;28;20219;-84
2024/01/18 01:43:23;;;;;;;30.73;21.83;;;-2.60;99.90;;;;;;5075009;28;20740;-83
2024/01/18 01:45:51;;;;;;;34.77;21.20;;;-2.60;99.90;;;;;;5074884;28;20217;-83
2024/01/18 01:48:19;;;;;;;30.53;20.57;;;-2.60;99.90;;;;;;5068152;28;20229;-82
2024/01/18 01:50:46;;;;;;;31.77;21.17;;;-2.60;99.90;;;;;;5072345;28;20708;-83
2024/01/18 01:53:15;;;;;;;30.53;21.43;;;-2.60;99.90;;;;;;5104427;27;20265;-83
2024/01/18 01:55:43;;;;;;;31.90;22.47;;;-2.60;99.90;;;;;;5084655;28;20314;-83
2024/01/18 01:58:12;;;;;;;27.13;20.77;;;-2.60;99.90;;;;;;5100381;28;20233;-83
2024/01/18 02:00:40;;;;;;;30.97;20.60;;;-2.70;99.90;;;;;;5079268;28;20235;-83
2024/01/18 02:03:09;;;;;;;30.83;21.50;;;-2.70;99.90;;;;;;5086719;28;20236;-83
2024/01/18 02:05:36;;;;;;;32.53;21.50;;;-2.70;99.90;;;;;;5079080;28;20226;-84
2024/01/18 02:08:02;;;;;;;29.83;19.17;;;-2.70;99.90;;;;;;5078201;28;20299;-83
2024/01/18 02:10:29;;;;;;;30.70;19.37;;;-2.70;99.90;;;;;;5077308;28;20230;-83
2024/01/18 02:12:58;;;;;;;31.37;20.93;;;-2.70;99.90;;;;;;5084331;27;20249;-83
2024/01/18 02:15:26;;;;;;;29.43;20.43;;;-2.70;99.90;;;;;;5080109;28;20222;-84
2024/01/18 02:17:54;;;;;;;31.43;19.83;;;-2.80;99.90;;;;;;5083078;28;20217;-85
2024/01/18 02:20:22;;;;;;;25.40;19.30;;;-2.80;99.90;;;;;;5073537;28;20246;-84
2024/01/18 02:22:50;;;;;;;24.53;18.73;;;-2.80;99.90;;;;;;5079805;28;20311;-83
2024/01/18 02:25:22;;;;;;;27.07;19.00;;;-2.80;99.90;;;;;;5090116;27;20293;-85
2024/01/18 02:27:49;;;;;;;30.83;20.97;;;-2.90;99.90;;;;;;5083838;27;20220;-85
2024/01/18 02:30:16;;;;;;;28.83;21.63;;;-2.90;99.90;;;;;;5079517;28;20257;-84
2024/01/18 02:32:43;;;;;;;30.37;21.60;;;-2.90;99.90;;;;;;5086404;28;20304;-85
2024/01/18 02:35:10;;;;;;;30.57;20.03;;;-2.90;99.90;;;;;;5074949;28;20796;-84
2024/01/18 02:37:37;;;;;;;29.27;19.83;;;-2.90;99.90;;;;;;5097215;28;20229;-83
2024/01/18 02:40:05;;;;;;;28.73;20.27;;;-3.00;99.90;;;;;;5078307;28;20705;-85
2024/01/18 02:42:34;;;;;;;29.10;19.40;;;-3.00;99.90;;;;;;5087842;27;20309;-85
2024/01/18 02:45:03;;;;;;;27.07;17.27;;;-3.10;99.90;;;;;;5074974;28;20499;-85
2024/01/18 02:47:31;;;;;;;26.77;19.33;;;-3.20;99.90;;;;;;5091869;27;20233;-83
2024/01/18 02:49:58;;;;;;;27.80;19.40;;;-3.20;99.90;;;;;;5092449;28;20245;-83
2024/01/18 02:52:25;;;;;;;30.17;20.93;;;-3.30;99.90;;;;;;5072204;28;21342;-83
2024/01/18 02:54:55;;;;;;;26.83;19.60;;;-3.40;99.90;;;;;;5077140;28;20229;-84
2024/01/18 02:57:22;;;;;;;28.57;20.00;;;-3.40;99.90;;;;;;5080597;28;20997;-84
2024/01/18 02:59:50;;;;;;;25.93;19.93;;;-3.50;99.90;;;;;;5097486;28;20221;-84
2024/01/18 03:02:17;;;;;;;45.47;20.50;;;-3.50;99.90;;;;;;5087279;27;20222;-83
2024/01/18 03:04:44;;;;;;;24.60;19.07;;;-3.50;99.90;;;;;;5073699;28;20281;-82
2024/01/18 03:07:10;;;;;;;28.13;19.60;;;-3.60;99.90;;;;;;5074647;27;20811;-83
2024/01/18 03:09:37;;;;;;;26.43;19.10;;;-3.70;99.90;;;;;;5105349;27;20236;-82
2024/01/18 03:12:05;;;;;;;31.43;20.50;;;-3.70;99.90;;;;;;5096642;28;20211;-84
2024/01/18 03:14:32;;;;;;;27.77;19.93;;;-3.70;99.90;;;;;;5077175;28;20235;-84
2024/01/18 03:17:01;;;;;;;35.20;21.93;;;-3.80;99.90;;;;;;5077611;28;20247;-83
2024/01/18 03:19:27;;;;;;;46.43;20.43;;;-3.90;99.90;;;;;;5078801;28;20707;-84
2024/01/18 03:21:54;;;;;;;30.63;20.53;;;-4.00;99.90;;;;;;5078825;28;20303;-84
2024/01/18 03:24:21;;;;;;;34.70;21.60;;;-4.00;99.90;;;;;;5078820;27;20327;-83
2024/01/18 03:26:48;;;;;;;31.07;20.27;;;-4.10;99.90;;;;;;5082196;28;20311;-83
2024/01/18 03:29:15;;;;;;;32.77;21.13;;;-4.10;99.90;;;;;;5072387;28;20316;-84
2024/01/18 03:31:41;;;;;;;27.27;19.03;;;-4.20;99.90;;;;;;5077102;27;20247;-84
2024/01/18 03:34:09;;;;;;;32.43;19.73;;;-4.20;99.90;;;;;;5074597;27;20252;-83
2024/01/18 03:36:36;;;;;;;32.43;20.33;;;-4.20;99.90;;;;;;5086063;27;20238;-84
2024/01/18 03:39:06;;;;;;;30.47;20.83;;;-4.30;99.90;;;;;;5097110;28;20309;-82
2024/01/18 03:41:32;;;;;;;30.20;19.33;;;-4.30;99.90;;;;;;5094113;28;20225;-83
2024/01/18 03:43:59;;;;;;;29.53;19.00;;;-4.40;99.90;;;;;;5073826;28;20252;-83
2024/01/18 03:46:26;;;;;;;27.53;18.20;;;-4.40;99.90;;;;;;5078736;28;20664;-84
2024/01/18 03:48:53;;;;;;;25.80;17.60;;;-4.50;99.90;;;;;;5077004;28;20228;-84
2024/01/18 03:51:21;;;;;;;28.57;18.77;;;-4.60;99.90;;;;;;5071760;28;20237;-84
2024/01/18 03:53:48;;;;;;;30.10;18.87;;;-4.60;99.90;;;;;;5083860;28;20227;-84
2024/01/18 03:56:15;;;;;;;26.20;18.23;;;-4.60;99.90;;;;;;5084802;27;20322;-83
2024/01/18 03:58:43;;;;;;;28.63;19.03;;;-4.70;99.90;;;;;;5079773;28;20305;-84
2024/01/18 04:01:10;;;;;;;26.53;17.93;;;-4.70;99.90;;;;;;5081008;27;20733;-83
2024/01/18 04:03:36;;;;;;;25.80;18.53;;;-4.80;99.90;;;;;;5110837;27;21078;-83
2024/01/18 04:06:03;;;;;;;31.80;20.27;;;-4.80;99.90;;;;;;5084235;28;21054;-84
2024/01/18 04:08:31;;;;;;;26.77;18.17;;;-4.80;99.90;;;;;;5075926;28;20271;-83
2024/01/18 04:10:58;;;;;;;29.90;19.30;;;-4.90;99.90;;;;;;5074326;28;20737;-82
2024/01/18 04:13:25;;;;;;;33.97;20.60;;;-4.90;99.90;;;;;;5070171;28;20270;-83
2024/01/18 04:15:52;;;;;;;32.47;20.63;;;-4.90;99.90;;;;;;5075500;28;20872;-84
2024/01/18 04:18:18;;;;;;;30.33;19.97;;;-4.90;99.90;;;;;;5076837;28;20244;-84
2024/01/18 04:20:45;;;;;;;29.63;19.87;;;-5.00;99.90;;;;;;5072531;28;20251;-84
2024/01/18 04:23:12;;;;;;;33.77;21.60;;;-5.00;99.90;;;;;;5083945;28;20258;-83
2024/01/18 04:25:40;;;;;;;32.13;21.07;;;-5.00;99.90;;;;;;5070567;28;20368;-82
2024/01/18 04:28:07;;;;;;;32.77;21.97;;;-4.90;99.90;;;;;;5076853;28;20310;-83
2024/01/18 04:30:34;;;;;;;32.53;22.07;;;-5.00;99.90;;;;;;5086817;27;20922;-84
2024/01/18 04:33:00;;;;;;;31.90;20.83;;;-5.00;99.90;;;;;;5074720;28;20330;-83
2024/01/18 04:35:27;;;;;;;30.67;21.07;;;-5.00;99.90;;;;;;5076038;27;20690;-83
2024/01/18 04:37:54;;;;;;;29.63;19.10;;;-5.00;99.90;;;;;;5080233;28;20269;-83
2024/01/18 04:40:20;;;;;;;28.73;19.67;;;-5.00;99.90;;;;;;5081555;28;20222;-83
2024/01/18 04:42:48;;;;;;;28.73;19.47;;;-5.00;99.90;;;;;;5073144;28;20235;-83
2024/01/18 04:45:15;;;;;;;28.40;19.20;;;-5.10;99.90;;;;;;5122401;27;20242;-84
2024/01/18 04:47:42;;;;;;;28.90;20.20;;;-5.10;99.90;;;;;;5081475;28;20311;-84
2024/01/18 04:50:10;;;;;;;37.47;19.83;;;-5.10;99.90;;;;;;5072902;28;20834;-83
2024/01/18 04:52:36;;;;;;;39.73;19.97;;;-5.10;99.90;;;;;;5079425;28;20969;-83
2024/01/18 04:55:04;;;;;;;35.63;20.10;;;-5.20;99.90;;;;;;5083373;28;20309;-82
2024/01/18 04:57:31;;;;;;;30.40;19.63;;;-5.20;99.90;;;;;;5080271;28;20611;-83
2024/01/18 04:59:59;;;;;;;28.83;18.73;;;-5.10;99.90;;;;;;5085622;28;20276;-82
2024/01/18 05:02:26;;;;;;;29.03;19.70;;;-5.20;99.90;;;;;;5074377;28;20345;-84
2024/01/18 05:04:53;;;;;;;27.87;17.93;;;-5.30;99.90;;;;;;5075802;28;20242;-82
2024/01/18 05:07:22;;;;;;;31.23;19.37;;;-5.30;99.90;;;;;;5075556;27;20230;-82
2024/01/18 05:09:49;;;;;;;30.27;19.73;;;-5.30;99.90;;;;;;5072523;28;20216;-81
2024/01/18 05:12:16;;;;;;;33.50;20.80;;;-5.30;99.90;;;;;;5077784;27;20242;-82
2024/01/18 05:14:42;;;;;;;34.37;21.77;;;-5.30;99.90;;;;;;5092976;28;20887;-81
2024/01/18 05:17:12;;;;;;;64.87;23.23;;;-5.40;99.90;;;;;;5101185;27;20219;-82
2024/01/18 05:19:39;;;;;;;32.30;21.03;;;-5.40;99.90;;;;;;5097185;27;20239;-81
2024/01/18 05:22:07;;;;;;;34.30;21.37;;;-5.40;99.90;;;;;;5080035;28;20239;-82
2024/01/18 05:24:34;;;;;;;28.20;18.53;;;-5.40;99.90;;;;;;5071809;28;20237;-82
2024/01/18 05:27:01;;;;;;;29.83;19.87;;;-5.40;99.90;;;;;;5090663;28;20229;-82
2024/01/18 05:29:27;;;;;;;31.23;20.03;;;-5.40;99.90;;;;;;5085233;27;20309;-82
2024/01/18 05:31:55;;;;;;;30.37;18.63;;;-5.50;99.90;;;;;;5091653;28;20331;-82
2024/01/18 05:34:23;;;;;;;26.90;18.63;;;-5.50;99.90;;;;;;5088744;27;20257;-82
2024/01/18 05:36:49;;;;;;;29.43;19.40;;;-5.40;99.90;;;;;;5084963;28;20251;-82
2024/01/18 05:39:16;;;;;;;25.27;18.77;;;-5.50;99.90;;;;;;5101979;27;22047;-82
2024/01/18 05:41:43;;;;;;;29.87;18.50;;;-5.60;99.90;;;;;;5096949;27;20946;-83
2024/01/18 05:44:10;;;;;;;29.53;19.43;;;-5.60;99.90;;;;;;5088267;27;20331;-82
2024/01/18 05:46:37;;;;;;;31.10;18.60;;;-5.60;99.90;;;;;;5078343;28;20219;-82
2024/01/18 05:49:04;;;;;;;27.40;18.60;;;-5.60;99.90;;;;;;5077257;28;21243;-83
2024/01/18 05:51:33;;;;;;;33.60;20.30;;;-5.60;99.90;;;;;;5074580;28;20285;-82
2024/01/18 05:54:00;;;;;;;30.63;19.77;;;-5.70;99.90;;;;;;5096693;27;20217;-79
2024/01/18 05:56:27;;;;;;;29.13;19.20;;;-5.70;99.90;;;;;;5100343;27;20338;-81
2024/01/18 05:58:53;;;;;;;29.63;20.53;;;-5.80;99.90;;;;;;5098172;27;20211;-82
2024/01/18 06:01:21;;;;;;;31.47;20.23;;;-5.80;99.90;;;;;;5098775;28;20221;-82
2024/01/18 06:03:48;;;;;;;30.10;20.17;;;-5.80;99.90;;;;;;5097778;27;20226;-82
2024/01/18 06:06:15;;;;;;;35.00;20.37;;;-5.80;99.90;;;;;;5101763;27;20234;-83
2024/01/18 06:08:43;;;;;;;34.20;23.43;;;-5.80;99.90;;;;;;5104323;28;20308;-81
2024/01/18 06:11:10;;;;;;;35.47;23.87;;;-5.90;99.90;;;;;;5102443;27;20306;-82
2024/01/18 06:13:39;;;;;;;36.10;22.67;;;-5.90;99.90;;;;;;5101646;27;20255;-83
2024/01/18 06:16:09;;;;;;;36.27;22.03;;;-5.80;99.90;;;;;;5099798;27;20752;-84
2024/01/18 06:18:36;;;;;;;31.40;20.93;;;-5.90;99.90;;;;;;5078193;28;20237;-84
2024/01/18 06:21:04;;;;;;;31.57;19.57;;;-5.80;99.90;;;;;;5082865;27;20305;-82
2024/01/18 06:23:30;;;;;;;35.53;20.13;;;-5.90;99.90;;;;;;5079157;28;20233;-82
2024/01/18 06:25:58;;;;;;;41.10;20.70;;;-5.80;99.90;;;;;;5081117;28;20222;-82
2024/01/18 06:28:25;;;;;;;35.40;21.60;;;-5.90;99.90;;;;;;5077360;28;20226;-82
2024/01/18 06:30:52;;;;;;;41.50;22.73;;;-5.90;99.90;;;;;;5082411;28;20280;-82
2024/01/18 06:33:19;;;;;;;37.17;22.50;;;-5.90;99.90;;;;;;5079704;27;20232;-83
2024/01/18 06:35:46;;;;;;;34.10;22.07;;;-5.90;99.90;;;;;;5084186;28;20253;-82
2024/01/18 06:38:13;;;;;;;30.73;20.37;;;-5.90;99.90;;;;;;5087686;27;21060;-83
2024/01/18 06:40:40;;;;;;;30.57;21.03;;;-5.90;99.90;;;;;;5083494;27;20287;-82
2024/01/18 06:43:08;;;;;;;32.77;20.17;;;-5.90;99.90;;;;;;5082735;28;20914;-82
2024/01/18 06:45:35;;;;;;;29.23;19.80;;;-5.90;99.90;;;;;;5084045;28;20233;-82
2024/01/18 06:48:02;;;;;;;35.10;21.57;;;-5.90;99.90;;;;;;5081703;28;20478;-81
2024/01/18 06:50:28;;;;;;;28.20;19.43;;;-5.90;99.90;;;;;;5080114;28;20623;-83
2024/01/18 06:52:57;;;;;;;33.60;21.97;;;-5.90;99.90;;;;;;5079438;28;20227;-82
2024/01/18 06:55:24;;;;;;;34.27;20.97;;;-5.90;99.90;;;;;;5076470;28;21020;-82
2024/01/18 06:57:51;;;;;;;35.40;21.60;;;-5.90;99.90;;;;;;5078313;28;20861;-82
2024/01/18 07:00:23;;;;;;;32.80;22.23;;;-6.00;99.90;;;;;;5076068;27;20269;-83
2024/01/18 07:02:50;;;;;;;35.40;22.30;;;-6.00;99.90;;;;;;5090201;27;20677;-84
2024/01/18 07:05:17;;;;;;;32.17;20.07;;;-5.90;99.90;;;;;;5082299;27;20262;-82
2024/01/18 07:07:44;;;;;;;35.97;21.90;;;-5.90;99.90;;;;;;5086336;28;21049;-83
2024/01/18 07:10:11;;;;;;;29.53;21.20;;;-5.90;99.90;;;;;;5092483;27;20309;-82
2024/01/18 07:12:38;;;;;;;53.77;23.23;;;-5.90;99.90;;;;;;5082436;28;20230;-82
2024/01/18 07:15:07;;;;;;;34.53;20.63;;;-6.00;99.90;;;;;;5081520;27;20734;-83
2024/01/18 07:17:35;;;;;;;33.27;21.10;;;-6.00;99.90;;;;;;5097535;27;20222;-82
2024/01/18 07:20:02;;;;;;;37.47;22.97;;;-6.00;99.90;;;;;;5097799;28;20228;-82
2024/01/18 07:22:29;;;;;;;32.37;21.63;;;-6.00;99.90;;;;;;5101082;28;20234;-82
2024/01/18 07:24:56;;;;;;;37.00;22.27;;;-6.00;99.90;;;;;;5095923;27;20278;-83
2024/01/18 07:27:23;;;;;;;33.60;22.50;;;-6.00;99.90;;;;;;5081173;27;20222;-83
2024/01/18 07:29:50;;;;;;;36.47;22.47;;;-6.00;99.90;;;;;;5080103;28;20229;-82
2024/01/18 07:32:16;;;;;;;37.23;22.63;;;-6.00;99.90;;;;;;5085723;28;20717;-83
2024/01/18 07:34:45;;;;;;;34.50;22.50;;;-6.10;99.90;;;;;;5087322;28;20251;-83
2024/01/18 07:37:13;;;;;;;35.20;21.97;;;-6.10;99.90;;;;;;5081112;28;20218;-83
2024/01/18 07:39:40;;;;;;;33.60;22.70;;;-6.10;99.90;;;;;;5089623;27;20226;-83
2024/01/18 07:42:07;;;;;;;34.97;21.87;;;-6.00;99.90;;;;;;5084661;27;20260;-83
2024/01/18 07:44:34;;;;;;;36.20;22.00;;;-6.10;99.90;;;;;;5078503;28;21612;-83
2024/01/18 07:47:01;;;;;;;39.73;23.10;;;-6.10;99.90;;;;;;5080000;28;20749;-83
2024/01/18 07:49:28;;;;;;;41.33;26.00;;;-6.00;99.90;;;;;;5080215;28;20341;-83
2024/01/18 07:51:56;;;;;;;38.60;24.03;;;-6.10;99.90;;;;;;5086457;27;20268;-83
2024/01/18 07:54:23;;;;;;;47.63;31.67;;;-6.00;99.90;;;;;;5111460;27;20223;-82
2024/01/18 07:56:50;;;;;;;35.70;22.93;;;-6.10;99.90;;;;;;5088924;28;20300;-83
2024/01/18 07:59:16;;;;;;;33.90;21.37;;;-6.10;99.90;;;;;;5087486;28;20661;-83
2024/01/18 08:01:45;;;;;;;38.90;23.57;;;-6.10;99.90;;;;;;5100447;28;20280;-83
2024/01/18 08:04:11;;;;;;;35.07;21.47;;;-6.00;99.90;;;;;;5102593;28;20233;-83
2024/01/18 08:06:38;;;;;;;34.27;21.10;;;-6.00;99.90;;;;;;5089093;28;20953;-83
2024/01/18 08:09:06;;;;;;;34.90;21.87;;;-6.00;99.90;;;;;;5082428;27;20246;-83
2024/01/18 08:11:33;;;;;;;35.13;22.07;;;-6.00;99.90;;;;;;5082184;28;20282;-83
2024/01/18 08:14:00;;;;;;;35.63;23.00;;;-5.90;99.90;;;;;;5096874;28;20290;-84
2024/01/18 08:16:26;;;;;;;35.70;22.07;;;-5.90;99.90;;;;;;5095772;27;20257;-83
2024/01/18 08:18:53;;;;;;;36.13;23.70;;;-5.90;99.90;;;;;;5105535;27;20218;-83
2024/01/18 08:21:20;;;;;;;43.33;24.00;;;-5.90;99.90;;;;;;5095743;28;20223;-83
2024/01/18 08:23:47;;;;;;;33.60;22.30;;;-5.80;99.90;;;;;;5100238;27;20282;-83
2024/01/18 08:26:16;;;;;;;37.13;23.57;;;-5.80;99.90;;;;;;5076498;28;20306;-83
2024/01/18 08:28:43;;;;;;;41.33;23.57;;;-5.70;99.90;;;;;;5072254;28;20253;-83
2024/01/18 08:31:09;;;;;;;39.07;24.47;;;-5.60;99.90;;;;;;5074106;28;21249;-83
2024/01/18 08:33:37;;;;;;;56.53;25.10;;;-5.60;99.90;;;;;;5077739;28;20225;-82
2024/01/18 08:36:04;;;;;;;34.17;23.17;;;-5.50;99.90;;;;;;5076683;28;20227;-83
2024/01/18 08:38:31;;;;;;;35.63;24.33;;;-5.40;99.90;;;;;;5102913;27;20782;-83
2024/01/18 08:40:58;;;;;;;36.10;23.17;;;-5.30;99.90;;;;;;5083737;27;20222;-83
2024/01/18 08:43:31;;;;;;;32.47;21.93;;;-5.20;99.90;;;;;;5075112;27;20235;-83
2024/01/18 08:45:59;;;;;;;32.93;22.87;;;-5.10;99.90;;;;;;5084983;28;20246;-83
2024/01/18 08:48:26;;;;;;;37.60;24.77;;;-5.00;99.90;;;;;;5096504;28;20222;-83
2024/01/18 08:50:52;;;;;;;39.20;23.43;;;-4.90;99.90;;;;;;5081242;28;21029;-83
2024/01/18 08:53:19;;;;;;;36.73;22.47;;;-4.80;99.90;;;;;;5081624;27;20264;-83
2024/01/18 08:55:46;;;;;;;37.67;24.33;;;-4.70;99.90;;;;;;5083282;28;20316;-83
2024/01/18 08:58:12;;;;;;;33.03;23.93;;;-4.60;99.90;;;;;;5094177;27;20227;-82
2024/01/18 09:00:40;;;;;;;33.43;23.50;;;-4.40;99.90;;;;;;5090449;27;20228;-83
2024/01/18 09:03:07;;;;;;;38.57;24.80;;;-4.30;99.90;;;;;;5090368;27;20229;-82
2024/01/18 09:05:34;;;;;;;34.63;23.93;;;-4.10;99.90;;;;;;5088869;28;20252;-83
2024/01/18 09:08:01;;;;;;;40.70;24.33;;;-4.00;99.90;;;;;;5076265;27;20238;-83
2024/01/18 09:10:29;;;;;;;34.90;23.47;;;-3.90;99.90;;;;;;5079097;28;20231;-83
2024/01/18 09:12:56;;;;;;;35.30;23.30;;;-3.80;99.90;;;;;;5081738;28;20229;-84
2024/01/18 09:15:24;;;;;;;30.80;23.17;;;-3.60;99.90;;;;;;5073818;27;20282;-83
2024/01/18 09:17:52;;;;;;;32.57;22.80;;;-3.50;99.90;;;;;;5076209;28;20217;-82
2024/01/18 09:20:19;;;;;;;30.87;22.87;;;-3.40;99.90;;;;;;5100968;27;20778;-83
2024/01/18 09:22:46;;;;;;;33.40;22.67;;;-3.20;99.90;;;;;;5064922;28;20230;-83
2024/01/18 09:25:13;;;;;;;30.67;22.70;;;-3.10;99.90;;;;;;5078365;27;20229;-84
2024/01/18 09:27:40;;;;;;;32.70;22.80;;;-3.00;99.90;;;;;;5091644;28;20230;-83
2024/01/18 09:30:09;;;;;;;31.17;22.17;;;-2.90;99.90;;;;;;5074590;28;20226;-84
2024/01/18 09:32:36;;;;;;;33.40;22.43;;;-2.70;99.90;;;;;;5072740;28;20229;-84
2024/01/18 09:35:05;;;;;;;30.97;22.80;;;-2.60;99.90;;;;;;5073529;27;20720;-83
2024/01/18 09:37:32;;;;;;;32.37;23.43;;;-2.50;99.90;;;;;;5085817;28;20228;-84
2024/01/18 09:39:59;;;;;;;38.80;24.03;;;-2.40;99.90;;;;;;5077332;28;20265;-83
2024/01/18 09:42:31;;;;;;;34.27;23.67;;;-2.30;99.90;;;;;;5071639;28;20291;-83
2024/01/18 09:45:05;;;;;;;35.33;22.77;;;-2.10;99.90;;;;;;5074555;28;20227;-83
2024/01/18 09:47:32;;;;;;;34.30;23.53;;;-2.00;99.90;;;;;;5077131;28;20309;-84
2024/01/18 09:49:59;;;;;;;34.77;24.20;;;-1.90;99.90;;;;;;5073250;28;20297;-84
2024/01/18 09:52:28;;;;;;;33.63;22.93;;;-1.70;99.90;;;;;;5073889;28;20309;-84
2024/01/18 09:54:55;;;;;;;35.87;23.00;;;-1.60;99.90;;;;;;5074129;28;20218;-82
2024/01/18 09:57:32;;;;;;;33.97;21.60;;;-1.50;99.90;;;;;;5077345;28;20301;-83
2024/01/18 10:00:01;;;;;;;33.07;22.93;;;-1.40;99.90;;;;;;5069108;28;20228;-83
2024/01/18 10:02:28;;;;;;;30.90;21.73;;;-1.20;99.90;;;;;;5091243;28;20222;-83
2024/01/18 10:05:00;;;;;;;31.33;23.03;;;-1.10;99.90;;;;;;5098422;27;20268;-84
2024/01/18 10:07:28;;;;;;;28.83;21.53;;;-1.00;99.90;;;;;;5072725;28;20247;-84
2024/01/18 10:09:55;;;;;;;29.47;21.57;;;-0.90;99.90;;;;;;5071824;28;20222;-83
2024/01/18 10:12:21;;;;;;;28.73;20.57;;;-0.70;99.90;;;;;;5082469;28;20219;-84
2024/01/18 10:14:48;;;;;;;30.40;20.27;;;-0.60;99.90;;;;;;5087485;28;20224;-84
2024/01/18 10:17:21;;;;;;;28.80;20.73;;;-0.50;99.90;;;;;;5080660;28;20286;-84
2024/01/18 10:19:50;;;;;;;27.90;20.17;;;-0.40;99.90;;;;;;5079439;28;20218;-84
2024/01/18 10:22:17;;;;;;;27.10;20.27;;;-0.30;99.90;;;;;;5080270;28;20216;-84
2024/01/18 10:24:45;;;;;;;24.53;18.60;;;-0.10;99.90;;;;;;5081625;27;20278;-84
2024/01/18 10:27:12;;;;;;;26.00;18.07;;;0.00;99.90;;;;;;5071632;27;20227;-83
2024/01/18 10:29:40;;;;;;;24.17;18.43;;;0.20;99.90;;;;;;5093145;27;20233;-83
2024/01/18 10:32:07;;;;;;;20.67;14.70;;;0.30;99.90;;;;;;5098919;28;20221;-83
2024/01/18 10:34:35;;;;;;;22.10;14.47;;;0.40;99.90;;;;;;5090927;27;20229;-83
2024/01/18 10:37:02;;;;;;;15.33;12.00;;;0.60;99.90;;;;;;5084662;28;20221;-83
2024/01/18 10:39:39;;;;;;;17.27;10.90;;;0.70;99.90;;;;;;5079865;28;20225;-84
2024/01/18 10:42:08;;;;;;;14.40;10.80;;;0.90;99.90;;;;;;5076137;28;20236;-83
2024/01/18 10:44:41;;;;;;;13.23;10.37;;;1.00;99.90;;;;;;5075200;28;20251;-83
2024/01/18 10:47:10;;;;;;;13.83;10.97;;;1.10;99.90;;;;;;5115967;27;20231;-81
2024/01/18 10:49:37;;;;;;;18.03;11.40;;;1.20;99.90;;;;;;5098619;28;20586;-81
2024/01/18 10:52:04;;;;;;;18.03;12.60;;;1.30;99.90;;;;;;5089907;28;20268;-82
2024/01/18 10:54:32;;;;;;;14.17;10.00;;;1.40;99.90;;;;;;5082176;27;20219;-82
2024/01/18 10:56:59;;;;;;;17.10;11.10;;;1.50;99.90;;;;;;5085124;28;20227;-82
2024/01/18 10:59:29;;;;;;;14.17;9.97;;;1.50;99.90;;;;;;5095663;28;20233;-82
2024/01/18 11:01:57;;;;;;;12.57;9.47;;;1.60;99.90;;;;;;5112625;27;20215;-81
2024/01/18 11:04:26;;;;;;;17.53;9.77;;;1.70;99.90;;;;;;5086411;27;20331;-81
2024/01/18 11:06:53;;;;;;;14.80;9.17;;;1.70;99.90;;;;;;5084204;28;20277;-81
2024/01/18 11:09:23;;;;;;;12.10;9.20;;;1.80;99.90;;;;;;5083325;27;20248;-82
2024/01/18 11:11:51;;;;;;;14.60;9.10;;;1.90;99.90;;;;;;5081668;28;20216;-83
2024/01/18 11:14:19;;;;;;;12.87;8.77;;;2.00;99.90;;;;;;5129577;27;20249;-83
2024/01/18 11:16:47;;;;;;;10.80;8.40;;;2.00;99.90;;;;;;5082808;27;20220;-83
2024/01/18 11:19:17;;;;;;;11.13;7.83;;;2.10;99.90;;;;;;5078150;27;20629;-84
2024/01/18 11:21:44;;;;;;;13.03;7.77;;;2.10;99.90;;;;;;5079332;27;20224;-84
2024/01/18 11:24:12;;;;;;;9.93;8.13;;;2.20;99.90;;;;;;5074263;27;20232;-83
2024/01/18 11:26:38;;;;;;;9.70;7.03;;;2.20;99.90;;;;;;5079260;27;20632;-83
2024/01/18 11:29:16;;;;;;;8.13;6.77;;;2.30;99.90;;;;;;5084866;28;20306;-82
2024/01/18 11:31:49;;;;;;;10.40;6.50;;;2.30;99.90;;;;;;5076080;28;20234;-82
2024/01/18 11:34:30;;;;;;;10.10;6.07;;;2.40;99.90;;;;;;5127293;27;20313;-83
2024/01/18 11:37:10;;;;;;;11.20;7.10;;;2.40;99.90;;;;;;5083115;28;20215;-82
2024/01/18 11:39:57;;;;;;;7.47;5.90;;;2.50;99.90;;;;;;5087287;28;20216;-81
2024/01/18 11:42:26;;;;;;;7.50;5.60;;;2.60;99.90;;;;;;5082074;27;20944;-84
2024/01/18 11:45:00;;;;;;;6.67;4.70;;;2.60;99.90;;;;;;5098096;27;20304;-83
2024/01/18 11:47:31;;;;;;;6.57;4.73;;;2.70;99.90;;;;;;5079287;27;20331;-83
2024/01/18 11:50:00;;;;;;;9.07;4.63;;;2.70;99.90;;;;;;5083697;28;20209;-82
2024/01/18 11:52:30;;;;;;;5.60;4.50;;;2.80;99.90;;;;;;5079484;28;20320;-82
2024/01/18 11:54:59;;;;;;;8.27;4.20;;;2.80;99.90;;;;;;5089475;27;20330;-81
2024/01/18 11:57:26;;;;;;;5.90;4.53;;;2.80;99.90;;;;;;5105257;27;20645;-83
2024/01/18 11:59:54;;;;;;;7.10;4.70;;;2.80;99.90;;;;;;5088677;27;20235;-81
2024/01/18 12:02:22;;;;;;;23.37;8.30;;;2.70;99.90;;;;;;5079041;28;20233;-81
2024/01/18 12:04:50;;;;;;;8.10;5.50;;;2.70;99.90;;;;;;5072796;27;20216;-81
2024/01/18 12:07:18;;;;;;;6.50;4.90;;;2.70;99.90;;;;;;5067289;28;20222;-81
2024/01/18 12:09:46;;;;;;;9.07;5.03;;;2.60;99.90;;;;;;5077370;27;20232;-81
2024/01/18 12:12:14;;;;;;;4.83;4.10;;;2.70;99.90;;;;;;5076617;27;20233;-81
2024/01/18 12:14:43;;;;;;;6.43;3.93;;;2.70;99.90;;;;;;5075683;27;20231;-82
2024/01/18 12:17:10;;;;;;;5.83;3.70;;;2.80;99.90;;;;;;5076676;27;20311;-81
2024/01/18 12:19:38;;;;;;;5.23;3.90;;;2.80;99.90;;;;;;5106135;27;20261;-81
2024/01/18 12:22:09;;;;;;;5.53;3.20;;;2.80;99.90;;;;;;5077669;28;20219;-81
2024/01/18 12:24:36;;;;;;;5.80;3.13;;;2.80;99.90;;;;;;5078235;27;21010;-81
2024/01/18 12:27:04;;;;;;;4.80;3.13;;;2.80;99.90;;;;;;5080943;28;20742;-82
2024/01/18 12:29:32;;;;;;;4.50;3.20;;;2.80;99.90;;;;;;5081196;28;20227;-81
2024/01/18 12:31:59;;;;;;;4.07;3.10;;;2.80;99.90;;;;;;5097964;28;20306;-82